Time;durP1;ratioP1;P1;durP2;ratioP2;P2;SDS_P1;SDS_P2;PMS_P1;PMS_P2;Temp;Humidity;BMP_temperature;BMP_pressure;BME280_temperature;BME280_humidity;BME280_pressure;Samples;Min_cycle;Max_cycle;Signal;HPM_P1;HPM_P2
2021/01/16 00:01:41;;;;;;;23.77;13.10;;;;;;;;;;5053446;28;20052;-70
2021/01/16 00:04:07;;;;;;;22.70;12.45;;;;;;;;;;5054640;28;20057;-70
2021/01/16 00:06:35;;;;;;;22.52;13.45;;;;;;;;;;5053024;28;20106;-70
2021/01/16 00:09:03;;;;;;;24.20;14.10;;;;;;;;;;5053330;28;20102;-70
2021/01/16 00:11:29;;;;;;;21.90;12.05;;;;;;;;;;5053316;28;20114;-70
2021/01/16 00:13:55;;;;;;;22.95;12.95;;;;;;;;;;5054170;28;20092;-70
2021/01/16 00:16:22;;;;;;;20.38;11.98;;;;;;;;;;5052920;28;20495;-70
2021/01/16 00:18:49;;;;;;;21.05;12.93;;;;;;;;;;5052937;28;20483;-70
2021/01/16 00:21:15;;;;;;;21.08;12.70;;;;;;;;;;5053143;28;20049;-70
2021/01/16 00:23:41;;;;;;;24.65;13.05;;;;;;;;;;5053049;28;20072;-70
2021/01/16 00:26:07;;;;;;;24.67;13.40;;;;;;;;;;5053950;28;20056;-70
2021/01/16 00:28:34;;;;;;;22.98;12.60;;;;;;;;;;5052934;28;20041;-70
2021/01/16 00:31:02;;;;;;;24.13;13.38;;;;;;;;;;5052965;28;20770;-70
2021/01/16 00:33:30;;;;;;;21.65;13.38;;;;;;;;;;5036554;28;20103;-70
2021/01/16 00:35:57;;;;;;;21.92;13.23;;;;;;;;;;5036095;28;20053;-70
2021/01/16 00:38:24;;;;;;;20.73;11.25;;;;;;;;;;5032764;28;20487;-70
2021/01/16 00:40:50;;;;;;;20.70;10.82;;;;;;;;;;5014955;28;20133;-70
2021/01/16 00:43:16;;;;;;;25.88;13.48;;;;;;;;;;5033090;28;20420;-70
2021/01/16 00:45:44;;;;;;;23.88;12.98;;;;;;;;;;5033657;28;20057;-70
2021/01/16 00:48:15;;;;;;;22.45;12.70;;;;;;;;;;5042127;28;20052;-70
2021/01/16 00:50:44;;;;;;;21.52;13.10;;;;;;;;;;5036351;28;20049;-70
2021/01/16 00:53:10;;;;;;;22.40;12.55;;;;;;;;;;5036517;28;20470;-70
2021/01/16 00:55:37;;;;;;;20.20;12.10;;;;;;;;;;5052200;28;20075;-70
2021/01/16 00:58:20;;;;;;;21.48;13.25;;;;;;;;;;5032243;28;20129;-70
2021/01/16 01:00:50;;;;;;;23.23;13.07;;;;;;;;;;5032475;28;20080;-70
2021/01/16 01:03:21;;;;;;;19.92;12.07;;;;;;;;;;5016199;28;20095;-70
2021/01/16 01:05:48;;;;;;;23.33;12.88;;;;;;;;;;5032063;28;20492;-70
2021/01/16 01:08:14;;;;;;;22.08;12.38;;;;;;;;;;5016168;28;20049;-70
2021/01/16 01:10:44;;;;;;;23.35;12.20;;;;;;;;;;5016028;28;20091;-70
2021/01/16 01:13:11;;;;;;;23.48;12.52;;;;;;;;;;5009258;28;20080;-70
2021/01/16 01:15:37;;;;;;;24.10;12.85;;;;;;;;;;5056509;28;20045;-71
2021/01/16 01:18:04;;;;;;;21.40;12.80;;;;;;;;;;5040567;28;20045;-70
2021/01/16 01:20:30;;;;;;;21.60;12.20;;;;;;;;;;5040393;28;20033;-70
2021/01/16 01:22:57;;;;;;;23.35;12.68;;;;;;;;;;5039786;28;20068;-70
2021/01/16 01:25:23;;;;;;;23.65;13.27;;;;;;;;;;5039863;28;20080;-70
2021/01/16 01:27:51;;;;;;;20.88;12.63;;;;;;;;;;5055749;28;20054;-70
2021/01/16 01:30:19;;;;;;;22.80;12.05;;;;;;;;;;5057077;28;20045;-70
2021/01/16 01:32:45;;;;;;;23.95;12.57;;;;;;;;;;5055940;28;20045;-70
2021/01/16 01:35:12;;;;;;;22.50;13.00;;;;;;;;;;5039674;28;20480;-70
2021/01/16 01:37:42;;;;;;;23.70;13.10;;;;;;;;;;5056212;28;20033;-70
2021/01/16 01:40:13;;;;;;;25.02;13.73;;;;;;;;;;5056397;28;20049;-70
2021/01/16 01:42:39;;;;;;;25.60;13.35;;;;;;;;;;5056007;28;20080;-70
2021/01/16 01:45:08;;;;;;;22.73;12.93;;;;;;;;;;5039387;28;20056;-70
2021/01/16 01:47:39;;;;;;;23.23;13.73;;;;;;;;;;5056076;28;20034;-70
2021/01/16 01:50:07;;;;;;;21.60;13.13;;;;;;;;;;5039327;28;20056;-71
2021/01/16 01:52:36;;;;;;;23.73;13.90;;;;;;;;;;5050527;28;20053;-70
2021/01/16 01:55:04;;;;;;;25.83;14.52;;;;;;;;;;5055759;28;20049;-70
2021/01/16 01:57:32;;;;;;;21.45;12.40;;;;;;;;;;5040798;28;20045;-70
2021/01/16 01:59:59;;;;;;;23.27;14.05;;;;;;;;;;5067838;28;20048;-70
2021/01/16 02:02:25;;;;;;;25.05;13.27;;;;;;;;;;5051618;28;20049;-70
2021/01/16 02:04:51;;;;;;;23.65;13.32;;;;;;;;;;5073124;28;20052;-70
2021/01/16 02:07:24;;;;;;;23.95;13.32;;;;;;;;;;5075025;28;20052;-70
2021/01/16 02:09:51;;;;;;;22.48;12.15;;;;;;;;;;5074523;28;20033;-70
2021/01/16 02:12:17;;;;;;;26.00;13.52;;;;;;;;;;5057146;28;20053;-70
2021/01/16 02:14:46;;;;;;;24.45;14.05;;;;;;;;;;5058002;28;20079;-70
2021/01/16 02:17:12;;;;;;;26.40;14.30;;;;;;;;;;5073552;28;20059;-70
2021/01/16 02:19:44;;;;;;;27.73;13.52;;;;;;;;;;5070088;28;20041;-70
2021/01/16 02:22:10;;;;;;;27.60;14.25;;;;;;;;;;5051953;28;20045;-70
2021/01/16 02:24:39;;;;;;;29.05;14.27;;;;;;;;;;5035723;28;20053;-70
2021/01/16 02:27:47;;;;;;;26.02;13.75;;;;;;;;;;5035223;28;20110;-70
2021/01/16 02:30:13;;;;;;;27.35;14.02;;;;;;;;;;5043629;28;20049;-70
2021/01/16 02:32:39;;;;;;;26.05;14.02;;;;;;;;;;5051433;28;20098;-71
2021/01/16 02:35:06;;;;;;;29.90;14.07;;;;;;;;;;5034803;28;20053;-70
2021/01/16 02:37:55;;;;;;;24.67;12.70;;;;;;;;;;5018246;28;20114;-70
2021/01/16 02:40:32;;;;;;;28.15;14.45;;;;;;;;;;5050886;28;20084;-70
2021/01/16 02:43:03;;;;;;;26.30;14.23;;;;;;;;;;5034846;28;20122;-70
2021/01/16 02:45:49;;;;;;;25.60;13.35;;;;;;;;;;5050439;28;20055;-70
2021/01/16 02:48:24;;;;;;;24.55;13.65;;;;;;;;;;5051001;28;20142;-70
2021/01/16 02:50:54;;;;;;;28.05;14.27;;;;;;;;;;5034211;28;20053;-70
2021/01/16 02:53:24;;;;;;;26.77;14.43;;;;;;;;;;5050603;28;20049;-70
2021/01/16 02:55:53;;;;;;;25.77;13.93;;;;;;;;;;5050247;28;20175;-71
2021/01/16 02:58:19;;;;;;;25.10;13.02;;;;;;;;;;5017651;28;20079;-70
2021/01/16 03:00:46;;;;;;;29.40;14.80;;;;;;;;;;5050118;28;20048;-70
2021/01/16 03:03:12;;;;;;;26.52;13.25;;;;;;;;;;5033905;28;20105;-70
2021/01/16 03:05:38;;;;;;;25.90;14.15;;;;;;;;;;5037210;28;20128;-70
2021/01/16 03:08:05;;;;;;;26.67;13.73;;;;;;;;;;5054150;28;20053;-70
2021/01/16 03:10:31;;;;;;;26.75;14.82;;;;;;;;;;5037873;28;20500;-70
2021/01/16 03:12:57;;;;;;;24.30;13.68;;;;;;;;;;5037698;28;20083;-70
2021/01/16 03:15:23;;;;;;;28.70;15.60;;;;;;;;;;5055119;28;20049;-70
2021/01/16 03:17:59;;;;;;;26.63;13.07;;;;;;;;;;5055497;28;20201;-70
2021/01/16 03:20:27;;;;;;;29.92;14.93;;;;;;;;;;5055511;28;20049;-70
2021/01/16 03:23:00;;;;;;;24.52;13.70;;;;;;;;;;5054096;28;20049;-70
2021/01/16 03:25:31;;;;;;;27.48;14.02;;;;;;;;;;5034013;28;20170;-70
2021/01/16 03:27:59;;;;;;;27.85;14.90;;;;;;;;;;5017894;28;20107;-71
2021/01/16 03:30:26;;;;;;;26.40;14.00;;;;;;;;;;5022368;28;20072;-70
2021/01/16 03:32:52;;;;;;;27.33;15.20;;;;;;;;;;5037658;28;20405;-70
2021/01/16 03:35:21;;;;;;;31.88;14.30;;;;;;;;;;5032676;28;20050;-70
2021/01/16 03:37:51;;;;;;;25.50;13.88;;;;;;;;;;5018439;28;20464;-70
2021/01/16 03:40:17;;;;;;;27.77;14.88;;;;;;;;;;5017481;28;20491;-71
2021/01/16 03:42:43;;;;;;;27.60;14.18;;;;;;;;;;4957317;28;27832;-70
2021/01/16 03:45:11;;;;;;;25.48;14.30;;;;;;;;;;5034605;28;20451;-71
2021/01/16 03:47:37;;;;;;;28.42;15.85;;;;;;;;;;5033780;28;20092;-70
2021/01/16 03:50:05;;;;;;;26.45;14.68;;;;;;;;;;5033204;28;20053;-70
2021/01/16 03:52:33;;;;;;;28.55;14.82;;;;;;;;;;5033946;28;20490;-70
2021/01/16 03:55:00;;;;;;;31.02;16.77;;;;;;;;;;5017464;28;20060;-70
2021/01/16 03:57:27;;;;;;;27.42;14.90;;;;;;;;;;5017156;28;20053;-70
2021/01/16 03:59:54;;;;;;;26.33;14.23;;;;;;;;;;5001058;28;20103;-71
2021/01/16 04:02:20;;;;;;;29.73;14.77;;;;;;;;;;5044729;28;20458;-70
2021/01/16 04:04:46;;;;;;;33.22;14.98;;;;;;;;;;5035120;28;20557;-71
2021/01/16 04:07:13;;;;;;;29.42;15.13;;;;;;;;;;5030919;28;20099;-72
2021/01/16 04:09:42;;;;;;;30.70;16.33;;;;;;;;;;5030406;28;20040;-71
2021/01/16 04:12:09;;;;;;;31.15;15.45;;;;;;;;;;5037257;28;20106;-71
2021/01/16 04:14:35;;;;;;;27.63;15.48;;;;;;;;;;5052871;28;20547;-70
2021/01/16 04:17:08;;;;;;;28.70;14.93;;;;;;;;;;5036481;28;20057;-70
2021/01/16 04:19:35;;;;;;;27.58;15.10;;;;;;;;;;5053197;28;20076;-71
2021/01/16 04:22:01;;;;;;;30.52;15.80;;;;;;;;;;5036374;28;20057;-71
2021/01/16 04:24:27;;;;;;;28.73;15.35;;;;;;;;;;5054065;28;20098;-70
2021/01/16 04:26:53;;;;;;;31.13;15.57;;;;;;;;;;5052738;28;20068;-70
2021/01/16 04:29:19;;;;;;;29.50;15.23;;;;;;;;;;5036299;28;20095;-70
2021/01/16 04:31:46;;;;;;;36.33;17.35;;;;;;;;;;5052780;28;20127;-70
2021/01/16 04:34:13;;;;;;;29.35;15.23;;;;;;;;;;5052820;28;20053;-70
2021/01/16 04:36:39;;;;;;;28.75;15.57;;;;;;;;;;5032385;28;20049;-70
2021/01/16 04:39:05;;;;;;;29.50;16.10;;;;;;;;;;5040357;28;20041;-70
2021/01/16 04:41:32;;;;;;;28.52;15.85;;;;;;;;;;5036229;28;20088;-70
2021/01/16 04:43:58;;;;;;;28.50;15.57;;;;;;;;;;5036122;28;20095;-70
2021/01/16 04:46:25;;;;;;;27.48;15.35;;;;;;;;;;5032539;28;20053;-70
2021/01/16 04:49:03;;;;;;;31.73;16.10;;;;;;;;;;5032510;28;20539;-71
2021/01/16 04:51:36;;;;;;;29.20;15.48;;;;;;;;;;5016436;28;20080;-70
2021/01/16 04:54:03;;;;;;;;;;;;;;;;;;5033280;28;20089;-71
2021/01/16 04:56:30;;;;;;;29.35;14.90;;;;;;;;;;5033578;28;20390;-71
2021/01/16 04:58:56;;;;;;;32.97;15.68;;;;;;;;;;5016046;28;20469;-70
2021/01/16 05:01:26;;;;;;;27.88;15.15;;;;;;;;;;5016116;28;20107;-71
2021/01/16 05:03:52;;;;;;;28.90;15.93;;;;;;;;;;5032186;28;20053;-71
2021/01/16 05:06:19;;;;;;;29.05;14.98;;;;;;;;;;5015765;28;20087;-71
2021/01/16 05:08:45;;;;;;;33.08;15.73;;;;;;;;;;5015956;28;20478;-71
2021/01/16 05:11:33;;;;;;;25.35;14.63;;;;;;;;;;5015924;28;20053;-71
2021/01/16 05:14:05;;;;;;;29.45;15.52;;;;;;;;;;5042561;28;20059;-71
2021/01/16 05:16:33;;;;;;;28.75;14.68;;;;;;;;;;5053100;28;20817;-71
2021/01/16 05:18:59;;;;;;;28.95;14.77;;;;;;;;;;5035430;28;20045;-71
2021/01/16 05:21:25;;;;;;;30.65;16.48;;;;;;;;;;5035505;28;20102;-71
2021/01/16 05:23:51;;;;;;;32.10;15.52;;;;;;;;;;5051728;28;20087;-71
2021/01/16 05:26:17;;;;;;;31.35;15.63;;;;;;;;;;5034865;28;20102;-71
2021/01/16 05:28:43;;;;;;;28.83;15.88;;;;;;;;;;5051244;28;20045;-71
2021/01/16 05:31:09;;;;;;;29.85;14.68;;;;;;;;;;5051845;28;20088;-71
2021/01/16 05:33:37;;;;;;;30.05;15.57;;;;;;;;;;5051622;28;20416;-71
2021/01/16 05:36:06;;;;;;;27.38;15.07;;;;;;;;;;5035293;28;20088;-71
2021/01/16 05:38:38;;;;;;;33.95;16.77;;;;;;;;;;5051877;28;20053;-71
2021/01/16 05:41:06;;;;;;;29.33;14.98;;;;;;;;;;5035381;28;20053;-71
2021/01/16 05:43:37;;;;;;;29.35;16.00;;;;;;;;;;5031688;28;20102;-71
2021/01/16 05:46:06;;;;;;;28.58;15.82;;;;;;;;;;5031526;28;20492;-70
2021/01/16 05:48:33;;;;;;;29.27;16.20;;;;;;;;;;5015342;28;20115;-71
2021/01/16 05:50:59;;;;;;;30.02;16.08;;;;;;;;;;5032201;28;20092;-71
2021/01/16 05:53:26;;;;;;;31.05;15.07;;;;;;;;;;5013717;28;20049;-71
2021/01/16 05:55:53;;;;;;;31.20;15.57;;;;;;;;;;5031025;28;20193;-70
2021/01/16 05:58:20;;;;;;;29.25;16.35;;;;;;;;;;5047773;28;20126;-70
2021/01/16 06:00:51;;;;;;;31.95;16.17;;;;;;;;;;5040263;28;20065;-70
2021/01/16 06:03:20;;;;;;;33.10;17.17;;;;;;;;;;5034655;28;20477;-70
2021/01/16 06:05:50;;;;;;;32.80;16.95;;;;;;;;;;5034427;28;20049;-71
2021/01/16 06:08:17;;;;;;;33.88;18.08;;;;;;;;;;5051247;28;20107;-70
2021/01/16 06:10:44;;;;;;;31.38;16.30;;;;;;;;;;5031093;28;20100;-71
2021/01/16 06:13:18;;;;;;;30.85;15.98;;;;;;;;;;5014756;28;20095;-70
2021/01/16 06:15:46;;;;;;;33.47;17.90;;;;;;;;;;5015083;28;20068;-70
2021/01/16 06:18:32;;;;;;;32.60;17.23;;;;;;;;;;5031062;28;20470;-71
2021/01/16 06:20:58;;;;;;;30.45;16.35;;;;;;;;;;5017668;28;20048;-70
2021/01/16 06:23:25;;;;;;;31.00;15.57;;;;;;;;;;5030895;28;20095;-70
2021/01/16 06:25:54;;;;;;;34.30;16.35;;;;;;;;;;5030759;28;20045;-70
2021/01/16 06:28:29;;;;;;;33.28;16.10;;;;;;;;;;5030970;28;20060;-70
2021/01/16 06:30:58;;;;;;;31.40;15.90;;;;;;;;;;5036717;28;20476;-71
2021/01/16 06:33:29;;;;;;;29.38;15.77;;;;;;;;;;5033894;28;20063;-71
2021/01/16 06:36:03;;;;;;;32.05;15.95;;;;;;;;;;5050357;28;20466;-71
2021/01/16 06:38:34;;;;;;;32.17;16.00;;;;;;;;;;5050921;28;20053;-70
2021/01/16 06:41:11;;;;;;;27.70;15.98;;;;;;;;;;5033843;28;20080;-70
2021/01/16 06:43:42;;;;;;;31.75;15.82;;;;;;;;;;5047080;28;20484;-71
2021/01/16 06:46:14;;;;;;;28.00;16.83;;;;;;;;;;5030649;28;20060;-71
2021/01/16 06:48:45;;;;;;;35.28;16.67;;;;;;;;;;5043087;28;20144;-70
2021/01/16 06:51:31;;;;;;;25.67;14.57;;;;;;;;;;5051835;28;20073;-71
2021/01/16 06:54:04;;;;;;;31.42;15.07;;;;;;;;;;5050387;28;20066;-70
2021/01/16 06:56:32;;;;;;;30.35;16.13;;;;;;;;;;5033651;28;20049;-70
2021/01/16 06:58:58;;;;;;;26.70;15.32;;;;;;;;;;5050214;28;20049;-70
2021/01/16 07:01:33;;;;;;;30.55;15.77;;;;;;;;;;5051612;28;20123;-70
2021/01/16 07:04:00;;;;;;;28.27;15.90;;;;;;;;;;5050155;28;20562;-70
2021/01/16 07:06:26;;;;;;;30.50;16.08;;;;;;;;;;5050254;28;20095;-69
2021/01/16 07:08:53;;;;;;;31.15;16.23;;;;;;;;;;5050278;28;20428;-70
2021/01/16 07:11:19;;;;;;;33.08;16.05;;;;;;;;;;5051415;28;20049;-70
2021/01/16 07:13:45;;;;;;;34.40;16.95;;;;;;;;;;5050212;28;20045;-71
2021/01/16 07:16:11;;;;;;;30.35;16.17;;;;;;;;;;5051291;28;20049;-70
2021/01/16 07:18:41;;;;;;;39.85;19.25;;;;;;;;;;5050253;28;20053;-70
2021/01/16 07:21:08;;;;;;;35.67;20.23;;;;;;;;;;5033894;28;20053;-70
2021/01/16 07:23:35;;;;;;;34.65;16.55;;;;;;;;;;5033893;28;20187;-70
2021/01/16 07:26:02;;;;;;;29.85;15.88;;;;;;;;;;5049806;28;20053;-71
2021/01/16 07:28:33;;;;;;;30.85;15.95;;;;;;;;;;5050275;28;20241;-71
2021/01/16 07:30:59;;;;;;;31.85;16.67;;;;;;;;;;5050108;28;20111;-70
2021/01/16 07:33:27;;;;;;;31.13;15.68;;;;;;;;;;5033596;28;20052;-70
2021/01/16 07:35:53;;;;;;;30.85;17.83;;;;;;;;;;5029773;28;20420;-70
2021/01/16 07:38:19;;;;;;;41.28;19.63;;;;;;;;;;5013795;28;20453;-70
2021/01/16 07:40:47;;;;;;;43.60;20.67;;;;;;;;;;5031239;28;20046;-70
2021/01/16 07:43:34;;;;;;;38.35;18.75;;;;;;;;;;5013848;28;20727;-71
2021/01/16 07:46:00;;;;;;;34.88;17.05;;;;;;;;;;5035147;28;20056;-70
2021/01/16 07:48:32;;;;;;;35.20;19.48;;;;;;;;;;5031732;28;20053;-70
2021/01/16 07:51:02;;;;;;;30.33;13.97;;;;;;;;;;5051092;28;20041;-70
2021/01/16 07:53:29;;;;;;;32.88;16.70;;;;;;;;;;5035388;28;20110;-71
2021/01/16 07:56:04;;;;;;;29.88;15.60;;;;;;;;;;5034730;28;20412;-71
2021/01/16 07:58:36;;;;;;;32.58;16.58;;;;;;;;;;5035228;28;20049;-71
2021/01/16 08:01:17;;;;;;;33.28;15.57;;;;;;;;;;5034587;28;20053;-71
2021/01/16 08:04:05;;;;;;;48.60;21.48;;;;;;;;;;5052296;28;20063;-71
2021/01/16 08:07:01;;;;;;;30.27;16.55;;;;;;;;;;5052368;28;20056;-71
2021/01/16 08:09:48;;;;;;;29.20;16.85;;;;;;;;;;5051407;28;20100;-72
2021/01/16 08:12:16;;;;;;;29.45;16.25;;;;;;;;;;5051193;28;20053;-71
2021/01/16 08:14:42;;;;;;;30.65;16.58;;;;;;;;;;5050490;28;20052;-71
2021/01/16 08:17:19;;;;;;;28.42;16.77;;;;;;;;;;5051144;28;20478;-72
2021/01/16 08:20:00;;;;;;;30.02;15.63;;;;;;;;;;5051041;28;20052;-72
2021/01/16 08:22:39;;;;;;;31.85;16.60;;;;;;;;;;5052203;28;20569;-71
2021/01/16 08:25:07;;;;;;;28.63;15.40;;;;;;;;;;5034291;28;20053;-70
2021/01/16 08:27:35;;;;;;;35.10;16.90;;;;;;;;;;5034094;28;20130;-71
2021/01/16 08:30:12;;;;;;;31.70;16.13;;;;;;;;;;5034599;28;20041;-71
2021/01/16 08:33:04;;;;;;;26.10;14.10;;;;;;;;;;5018039;28;20057;-72
2021/01/16 08:35:36;;;;;;;26.95;15.25;;;;;;;;;;5030651;28;20091;-72
2021/01/16 08:38:29;;;;;;;22.03;11.97;;;;;;;;;;5037145;28;20148;-72
2021/01/16 08:41:04;;;;;;;30.00;17.27;;;;;;;;;;5035147;28;20131;-70
2021/01/16 08:43:44;;;;;;;27.00;14.90;;;;;;;;;;5046991;28;20067;-72
2021/01/16 08:46:29;;;;;;;32.88;15.93;;;;;;;;;;5026055;28;20053;-70
2021/01/16 08:49:04;;;;;;;28.10;15.27;;;;;;;;;;5038742;28;20045;-70
2021/01/16 08:51:40;;;;;;;30.80;15.30;;;;;;;;;;5022556;28;20409;-71
2021/01/16 08:54:23;;;;;;;29.10;15.43;;;;;;;;;;5039289;28;20260;-71
2021/01/16 08:56:54;;;;;;;26.10;14.52;;;;;;;;;;5029321;28;20416;-71
2021/01/16 08:59:31;;;;;;;28.42;14.80;;;;;;;;;;5040701;28;20479;-73
2021/01/16 09:02:10;;;;;;;28.55;15.77;;;;;;;;;;5037708;28;20061;-73
2021/01/16 09:04:39;;;;;;;29.38;15.38;;;;;;;;;;5038320;28;20049;-72
2021/01/16 09:07:22;;;;;;;30.35;16.50;;;;;;;;;;5021250;28;20475;-72
2021/01/16 09:10:03;;;;;;;27.02;15.07;;;;;;;;;;5035608;28;20042;-73
2021/01/16 09:12:34;;;;;;;25.98;15.05;;;;;;;;;;5009870;28;20436;-73
2021/01/16 09:15:19;;;;;;;35.38;18.20;;;;;;;;;;5039498;28;20053;-71
2021/01/16 09:18:06;;;;;;;32.28;17.65;;;;;;;;;;5039457;28;20104;-69
2021/01/16 09:20:33;;;;;;;35.92;18.02;;;;;;;;;;5040714;28;20052;-70
2021/01/16 09:23:23;;;;;;;29.02;15.30;;;;;;;;;;5043474;28;20331;-71
2021/01/16 09:25:54;;;;;;;31.98;17.63;;;;;;;;;;5050195;28;20053;-71
2021/01/16 09:28:40;;;;;;;30.92;16.05;;;;;;;;;;5037110;28;20053;-71
2021/01/16 09:31:23;;;;;;;28.77;15.38;;;;;;;;;;5028937;28;20056;-71
2021/01/16 09:33:51;;;;;;;29.98;17.10;;;;;;;;;;5036760;28;20041;-71
2021/01/16 09:36:42;;;;;;;28.02;16.30;;;;;;;;;;5020772;28;20053;-71
2021/01/16 09:39:16;;;;;;;31.83;17.65;;;;;;;;;;5022939;28;20083;-73
2021/01/16 09:41:44;;;;;;;29.85;17.05;;;;;;;;;;5016076;28;20102;-70
2021/01/16 09:44:10;;;;;;;32.22;18.33;;;;;;;;;;5038660;28;20098;-73
2021/01/16 09:46:37;;;;;;;32.70;18.15;;;;;;;;;;5042898;28;20094;-71
2021/01/16 09:49:04;;;;;;;29.83;17.83;;;;;;;;;;5038752;28;20114;-70
2021/01/16 09:51:35;;;;;;;30.95;16.40;;;;;;;;;;5023953;28;20103;-71
2021/01/16 09:54:10;;;;;;;35.35;18.15;;;;;;;;;;5018767;28;20060;-71
2021/01/16 09:56:42;;;;;;;33.25;18.70;;;;;;;;;;5011074;28;20051;-71
2021/01/16 09:59:09;;;;;;;32.63;17.47;;;;;;;;;;5038085;28;20049;-71
2021/01/16 10:01:35;;;;;;;29.08;16.70;;;;;;;;;;5025165;28;20357;-71
2021/01/16 10:04:03;;;;;;;33.90;17.02;;;;;;;;;;5027967;28;20053;-71
2021/01/16 10:06:34;;;;;;;30.48;17.00;;;;;;;;;;5067861;22;20071;-70
2021/01/16 10:09:01;;;;;;;22.60;13.82;;;;;;;;;;5058444;28;20434;-70
2021/01/16 10:11:43;;;;;;;23.77;15.15;;;;;;;;;;5064813;28;20044;-70
2021/01/16 10:14:13;;;;;;;29.92;15.48;;;;;;;;;;5052026;28;20075;-70
2021/01/16 10:16:40;;;;;;;27.90;14.52;;;;;;;;;;5047405;28;20549;-72
2021/01/16 10:19:11;;;;;;;29.42;14.05;;;;;;;;;;5042920;28;20180;-71
2021/01/16 10:21:46;;;;;;;27.00;14.50;;;;;;;;;;5046840;28;20044;-73
2021/01/16 10:24:17;;;;;;;23.45;13.50;;;;;;;;;;5049131;28;20103;-71
2021/01/16 10:26:44;;;;;;;25.55;14.18;;;;;;;;;;5049274;28;20090;-71
2021/01/16 10:29:30;;;;;;;26.42;14.88;;;;;;;;;;5049335;28;20048;-73
2021/01/16 10:32:21;;;;;;;25.42;14.40;;;;;;;;;;5041512;28;20060;-73
2021/01/16 10:34:49;;;;;;;27.77;15.75;;;;;;;;;;5051710;28;20072;-72
2021/01/16 10:37:15;;;;;;;24.90;14.27;;;;;;;;;;5052712;28;20052;-71
2021/01/16 10:39:41;;;;;;;26.25;15.30;;;;;;;;;;5032690;28;20076;-70
2021/01/16 10:42:14;;;;;;;26.23;15.65;;;;;;;;;;5032780;28;20045;-70
2021/01/16 10:44:40;;;;;;;;;;;;;;;;;;5052264;28;20053;-73
2021/01/16 10:47:25;;;;;;;23.52;12.98;;;;;;;;;;5049988;28;20435;-73
2021/01/16 10:49:51;;;;;;;24.17;13.18;;;;;;;;;;5049640;28;20499;-71
2021/01/16 10:52:28;;;;;;;22.10;12.55;;;;;;;;;;5032695;28;20045;-70
2021/01/16 10:55:01;;;;;;;24.33;12.80;;;;;;;;;;5050042;28;20553;-71
2021/01/16 10:57:47;;;;;;;24.30;13.07;;;;;;;;;;5049181;28;20382;-73
2021/01/16 11:00:17;;;;;;;22.77;12.57;;;;;;;;;;5052425;28;20046;-74
2021/01/16 11:02:46;;;;;;;22.83;12.93;;;;;;;;;;5048419;28;20049;-73
2021/01/16 11:05:18;;;;;;;20.90;11.93;;;;;;;;;;5006481;28;20103;-70
2021/01/16 11:07:46;;;;;;;21.85;12.32;;;;;;;;;;5049740;28;20049;-70
2021/01/16 11:10:16;;;;;;;20.92;12.30;;;;;;;;;;5049634;28;20052;-69
2021/01/16 11:12:43;;;;;;;20.25;13.00;;;;;;;;;;5049484;28;20103;-67
2021/01/16 11:15:26;;;;;;;22.27;12.50;;;;;;;;;;5049394;28;20123;-71
2021/01/16 11:17:56;;;;;;;20.88;12.45;;;;;;;;;;5047757;28;20103;-71
2021/01/16 11:20:27;;;;;;;24.95;13.73;;;;;;;;;;5049421;28;20565;-70
2021/01/16 11:23:27;;;;;;;21.40;12.18;;;;;;;;;;5049790;28;20068;-69
2021/01/16 11:25:53;;;;;;;19.88;11.90;;;;;;;;;;5045600;28;20098;-69
2021/01/16 11:28:23;;;;;;;20.27;12.35;;;;;;;;;;5050299;28;20492;-69
2021/01/16 11:30:52;;;;;;;22.08;12.60;;;;;;;;;;5053065;28;20128;-70
2021/01/16 11:33:25;;;;;;;23.00;13.15;;;;;;;;;;5054611;28;20106;-68
2021/01/16 11:36:03;;;;;;;22.55;12.95;;;;;;;;;;5050653;28;20364;-69
2021/01/16 11:38:45;;;;;;;20.95;12.75;;;;;;;;;;5054119;28;20048;-69
2021/01/16 11:41:51;;;;;;;21.70;13.68;;;;;;;;;;5054234;28;20488;-70
2021/01/16 11:44:18;;;;;;;21.60;12.85;;;;;;;;;;5053736;28;20103;-69
2021/01/16 11:46:46;;;;;;;20.25;12.52;;;;;;;;;;5052333;28;20092;-69
2021/01/16 11:49:12;;;;;;;21.52;12.30;;;;;;;;;;5053992;28;20103;-69
2021/01/16 11:51:38;;;;;;;21.42;13.05;;;;;;;;;;5036174;28;20122;-68
2021/01/16 11:54:04;;;;;;;22.10;12.93;;;;;;;;;;5052561;28;20052;-69
2021/01/16 11:56:30;;;;;;;19.70;12.10;;;;;;;;;;5052305;28;20103;-69
2021/01/16 11:58:56;;;;;;;20.65;12.68;;;;;;;;;;5053805;28;20057;-68
2021/01/16 12:01:22;;;;;;;21.65;12.90;;;;;;;;;;5056558;28;20069;-69
2021/01/16 12:03:49;;;;;;;21.92;13.93;;;;;;;;;;5029513;28;20416;-68
2021/01/16 12:06:17;;;;;;;20.30;13.82;;;;;;;;;;5033510;28;20103;-68
2021/01/16 12:08:45;;;;;;;22.63;12.85;;;;;;;;;;5034804;28;20107;-69
2021/01/16 12:11:12;;;;;;;19.50;12.55;;;;;;;;;;5059732;28;20106;-68
2021/01/16 12:13:43;;;;;;;20.60;12.45;;;;;;;;;;5074358;28;20506;-69
2021/01/16 12:16:12;;;;;;;18.38;11.98;;;;;;;;;;5074198;28;20052;-73
2021/01/16 12:18:39;;;;;;;22.23;12.40;;;;;;;;;;5074367;28;20053;-68
2021/01/16 12:21:07;;;;;;;21.80;12.88;;;;;;;;;;5060914;28;20275;-70
2021/01/16 12:23:59;;;;;;;18.52;11.65;;;;;;;;;;5053735;28;20067;-70
2021/01/16 12:26:25;;;;;;;19.63;12.43;;;;;;;;;;5047608;28;20075;-70
2021/01/16 12:29:06;;;;;;;22.48;13.77;;;;;;;;;;5051406;28;20084;-69
2021/01/16 12:31:32;;;;;;;25.15;13.02;;;;;;;;;;5056222;28;20041;-69
2021/01/16 12:34:02;;;;;;;19.42;11.80;;;;;;;;;;5035783;28;20049;-70
2021/01/16 12:36:28;;;;;;;25.90;13.15;;;;;;;;;;5052884;28;20041;-70
2021/01/16 12:38:54;;;;;;;24.98;14.02;;;;;;;;;;5053669;28;20045;-69
2021/01/16 12:41:25;;;;;;;21.80;12.68;;;;;;;;;;5056053;28;20106;-69
2021/01/16 12:43:52;;;;;;;22.85;13.13;;;;;;;;;;5051111;28;20049;-70
2021/01/16 12:46:21;;;;;;;24.02;13.27;;;;;;;;;;5052697;28;20446;-69
2021/01/16 12:48:50;;;;;;;26.20;14.38;;;;;;;;;;5053545;28;20397;-68
2021/01/16 12:51:17;;;;;;;23.05;13.85;;;;;;;;;;5052510;28;20463;-68
2021/01/16 12:53:44;;;;;;;22.45;14.02;;;;;;;;;;5053311;28;20048;-68
2021/01/16 12:56:21;;;;;;;25.67;15.65;;;;;;;;;;5053330;28;20060;-68
2021/01/16 12:58:49;;;;;;;21.27;13.05;;;;;;;;;;5052162;28;20118;-68
2021/01/16 13:01:16;;;;;;;25.10;14.95;;;;;;;;;;5064279;28;20495;-68
2021/01/16 13:03:42;;;;;;;26.83;14.77;;;;;;;;;;5054860;28;20052;-68
2021/01/16 13:06:09;;;;;;;21.45;12.60;;;;;;;;;;5071956;28;20131;-68
2021/01/16 13:08:35;;;;;;;26.52;14.48;;;;;;;;;;5071015;28;20076;-68
2021/01/16 13:11:01;;;;;;;24.15;14.35;;;;;;;;;;5061437;28;20079;-68
2021/01/16 13:13:27;;;;;;;24.00;13.98;;;;;;;;;;5051423;28;20102;-68
2021/01/16 13:16:01;;;;;;;22.23;13.93;;;;;;;;;;5052743;28;20523;-69
2021/01/16 13:18:32;;;;;;;25.90;14.00;;;;;;;;;;5052787;28;20049;-69
2021/01/16 13:21:01;;;;;;;26.10;14.23;;;;;;;;;;5062312;28;20461;-69
2021/01/16 13:23:45;;;;;;;22.30;12.50;;;;;;;;;;5072144;28;20048;-68
2021/01/16 13:26:13;;;;;;;28.08;13.77;;;;;;;;;;5071669;28;20048;-69
2021/01/16 13:28:43;;;;;;;21.30;13.63;;;;;;;;;;5071774;28;20044;-69
2021/01/16 13:31:13;;;;;;;22.45;13.18;;;;;;;;;;5061542;28;20492;-69
2021/01/16 13:33:45;;;;;;;23.15;14.02;;;;;;;;;;5052213;28;20049;-69
2021/01/16 13:36:17;;;;;;;23.33;13.35;;;;;;;;;;5052555;28;20541;-69
2021/01/16 13:38:43;;;;;;;20.65;12.75;;;;;;;;;;5051986;28;20049;-69
2021/01/16 13:41:09;;;;;;;22.35;13.65;;;;;;;;;;5055941;28;20041;-69
2021/01/16 13:43:38;;;;;;;23.38;14.80;;;;;;;;;;5052417;28;20048;-68
2021/01/16 13:46:04;;;;;;;26.00;15.10;;;;;;;;;;5052136;28;20056;-69
2021/01/16 13:48:47;;;;;;;23.40;14.25;;;;;;;;;;5052017;28;20040;-69
2021/01/16 13:51:30;;;;;;;23.20;14.75;;;;;;;;;;5046075;28;20091;-69
2021/01/16 13:54:04;;;;;;;25.25;14.45;;;;;;;;;;5049182;28;20052;-69
2021/01/16 13:56:46;;;;;;;23.17;14.02;;;;;;;;;;5049718;28;20499;-69
2021/01/16 13:59:49;;;;;;;24.95;14.80;;;;;;;;;;5039604;28;20090;-69
2021/01/16 14:02:28;;;;;;;24.55;14.43;;;;;;;;;;5047340;28;20059;-69
2021/01/16 14:04:55;;;;;;;25.80;14.57;;;;;;;;;;5046317;28;20040;-69
2021/01/16 14:07:31;;;;;;;21.90;13.57;;;;;;;;;;5048592;28;20107;-69
2021/01/16 14:10:00;;;;;;;21.30;13.85;;;;;;;;;;5048917;28;20053;-69
2021/01/16 14:12:27;;;;;;;22.45;13.70;;;;;;;;;;5014194;28;20060;-70
2021/01/16 14:14:54;;;;;;;24.88;14.88;;;;;;;;;;5030830;28;20057;-69
2021/01/16 14:17:24;;;;;;;26.63;15.25;;;;;;;;;;5030568;28;20049;-69
2021/01/16 14:19:57;;;;;;;24.70;14.90;;;;;;;;;;5032597;28;20103;-69
2021/01/16 14:22:39;;;;;;;24.23;14.40;;;;;;;;;;5048275;28;20458;-71
2021/01/16 14:25:07;;;;;;;22.88;13.40;;;;;;;;;;5044898;28;20052;-69
2021/01/16 14:27:44;;;;;;;23.73;13.38;;;;;;;;;;5046596;28;20045;-70
2021/01/16 14:30:17;;;;;;;27.42;14.80;;;;;;;;;;5017105;28;20060;-70
2021/01/16 14:32:44;;;;;;;19.48;13.00;;;;;;;;;;5051057;28;20127;-70
2021/01/16 14:35:17;;;;;;;22.25;12.70;;;;;;;;;;5006356;28;20069;-69
2021/01/16 14:37:44;;;;;;;24.05;15.18;;;;;;;;;;5049509;28;20463;-70
2021/01/16 14:40:13;;;;;;;22.10;11.93;;;;;;;;;;5050227;28;20072;-69